Time;durP1;ratioP1;P1;durP2;ratioP2;P2;SDS_P1;SDS_P2;PMS_P1;PMS_P2;Temp;Humidity;BMP_temperature;BMP_pressure;BME280_temperature;BME280_humidity;BME280_pressure;Samples;Min_cycle;Max_cycle;Signal;HPM_P1;HPM_P2
2022/10/24 00:02:42;;;;;;;1999.90;999.90;;;15.90;99.90;;;;;;6734357;88;20185;-77
2022/10/24 00:12:43;;;;;;;1999.90;999.90;;;15.90;99.90;;;;;;6733177;88;20197;-76
2022/10/24 00:22:44;;;;;;;1999.90;999.90;;;16.00;99.90;;;;;;6733627;88;20219;-76
2022/10/24 00:32:44;;;;;;;1999.90;999.90;;;15.90;99.90;;;;;;6734883;88;20196;-77
2022/10/24 00:42:46;;;;;;;1999.90;999.90;;;15.90;99.90;;;;;;6729936;88;20713;-77
2022/10/24 00:52:47;;;;;;;1999.90;999.90;;;16.00;99.90;;;;;;6733698;88;20551;-77
2022/10/24 01:02:47;;;;;;;1999.90;999.90;;;16.00;99.90;;;;;;6731905;88;20255;-75
2022/10/24 01:13:17;;;;;;;1999.90;999.90;;;16.00;99.90;;;;;;6734039;88;20493;-76
2022/10/24 01:23:37;;;;;;;1999.90;999.90;;;16.10;99.90;;;;;;6738100;88;20200;-76
2022/10/24 01:33:45;;;;;;;1999.90;999.90;;;16.10;99.90;;;;;;6731932;88;20821;-77
2022/10/24 01:44:05;;;;;;;1999.90;999.90;;;16.00;99.90;;;;;;6729563;88;20751;-77
2022/10/24 01:54:08;;;;;;;1999.90;999.90;;;16.00;99.90;;;;;;6735345;88;20181;-77
2022/10/24 02:04:11;;;;;;;1999.90;999.90;;;15.90;99.90;;;;;;6727950;88;20206;-77
2022/10/24 02:14:19;;;;;;;1999.90;999.90;;;15.80;99.90;;;;;;6731866;88;20185;-77
2022/10/24 02:24:40;;;;;;;1999.90;999.90;;;15.80;99.90;;;;;;6728842;88;20209;-76
2022/10/24 02:34:42;;;;;;;1999.90;999.90;;;15.90;99.90;;;;;;6731322;88;20194;-77
2022/10/24 02:44:45;;;;;;;1999.90;999.90;;;15.80;99.90;;;;;;6731092;88;20328;-77
2022/10/24 02:54:46;;;;;;;1999.90;999.90;;;15.90;99.90;;;;;;6728582;88;20185;-77
2022/10/24 03:04:46;;;;;;;1999.90;999.90;;;15.90;99.90;;;;;;6728685;88;20185;-77
2022/10/24 03:14:47;;;;;;;1999.90;999.90;;;15.90;99.90;;;;;;6734083;88;20335;-77
2022/10/24 03:24:48;;;;;;;1999.90;999.90;;;15.90;99.90;;;;;;6729347;88;20240;-77
2022/10/24 03:34:48;;;;;;;1999.90;999.90;;;15.80;99.90;;;;;;6733131;88;20276;-77
2022/10/24 03:44:49;;;;;;;1999.90;999.90;;;15.70;99.90;;;;;;6725967;88;20515;-77
2022/10/24 03:54:49;;;;;;;1999.90;999.90;;;15.70;99.90;;;;;;6727935;88;20664;-77
2022/10/24 04:04:50;;;;;;;1999.90;999.90;;;15.70;99.90;;;;;;6734380;88;20607;-77
2022/10/24 04:14:50;;;;;;;1999.90;999.90;;;15.70;99.90;;;;;;6733026;88;20217;-77
2022/10/24 04:34:54;;;;;;;1999.90;999.90;;;15.40;99.90;;;;;;6663037;89;20224;-79
2022/10/24 04:44:55;;;;;;;1999.90;999.90;;;15.40;99.90;;;;;;6667065;89;20242;-77
2022/10/24 04:54:55;;;;;;;1999.90;999.90;;;15.40;99.90;;;;;;6660426;89;20223;-78
2022/10/24 05:04:56;;;;;;;1999.90;999.90;;;15.30;99.90;;;;;;6659587;89;20225;-78
2022/10/24 05:14:56;;;;;;;1999.90;999.90;;;15.30;99.90;;;;;;6649942;89;20242;-78
2022/10/24 05:24:57;;;;;;;1999.90;999.90;;;15.20;99.90;;;;;;6660754;89;20222;-78
2022/10/24 05:34:57;;;;;;;1999.90;999.90;;;15.30;99.90;;;;;;6658446;88;20565;-77
2022/10/24 05:44:58;;;;;;;1999.90;999.90;;;15.30;99.90;;;;;;6652394;89;20287;-77
2022/10/24 05:54:58;;;;;;;1999.90;999.90;;;15.40;99.90;;;;;;6657906;89;20258;-79
2022/10/24 06:04:59;;;;;;;1999.90;999.90;;;15.50;99.90;;;;;;6677302;89;20321;-82
2022/10/24 06:15:00;;;;;;;1999.90;999.90;;;15.60;99.90;;;;;;6674623;89;20229;-79
2022/10/24 06:25:00;;;;;;;1999.90;999.90;;;15.70;99.90;;;;;;6674503;89;20675;-80
2022/10/24 06:35:01;;;;;;;1999.90;999.90;;;15.60;99.90;;;;;;6688517;89;20200;-79
2022/10/24 06:45:03;;;;;;;1999.90;999.90;;;15.80;99.90;;;;;;6691021;89;20242;-79
2022/10/24 06:55:04;;;;;;;1999.90;999.90;;;15.90;99.90;;;;;;6694122;88;20198;-80
2022/10/24 07:05:08;;;;;;;1999.90;999.90;;;15.80;99.90;;;;;;6693441;89;20341;-81
2022/10/24 07:15:09;;;;;;;1999.90;999.90;;;15.80;99.90;;;;;;6692381;89;20182;-79
2022/10/24 07:25:09;;;;;;;1999.90;999.90;;;15.80;99.90;;;;;;6691896;88;20265;-81
2022/10/24 07:35:11;;;;;;;1999.90;999.90;;;15.90;99.90;;;;;;6692581;89;20186;-80
2022/10/24 07:45:12;;;;;;;1999.90;999.90;;;16.20;99.90;;;;;;6693782;89;20626;-81
2022/10/24 07:55:12;;;;;;;1999.90;999.90;;;16.50;99.90;;;;;;6692762;89;20231;-79
2022/10/24 08:05:13;;;;;;;1999.90;999.90;;;16.60;99.90;;;;;;6682776;89;20510;-81
2022/10/24 08:15:14;;;;;;;1999.90;999.90;;;16.90;99.90;;;;;;6673148;88;20657;-81
2022/10/24 08:25:14;;;;;;;1999.90;999.90;;;17.10;99.90;;;;;;6671471;88;20196;-81
2022/10/24 08:35:17;;;;;;;1999.90;999.90;;;17.30;99.90;;;;;;6676035;89;20234;-80
2022/10/24 08:45:33;;;;;;;1999.90;999.90;;;17.40;99.90;;;;;;6672487;89;20175;-79
2022/10/24 08:55:45;;;;;;;1999.90;999.90;;;17.50;99.90;;;;;;6674270;89;20239;-79
2022/10/24 09:05:52;;;;;;;1999.90;999.90;;;17.80;99.90;;;;;;6684676;89;20227;-80
2022/10/24 09:15:53;;;;;;;1999.90;999.90;;;18.00;99.90;;;;;;6682408;88;20223;-81
2022/10/24 09:25:56;;;;;;;1999.90;999.90;;;18.50;99.90;;;;;;6676087;88;20869;-80
2022/10/24 09:36:01;;;;;;;1999.90;999.90;;;19.00;99.90;;;;;;6687575;88;20192;-80
2022/10/24 09:46:08;;;;;;;1999.90;999.90;;;19.40;99.90;;;;;;6688334;88;20266;-79
2022/10/24 09:56:12;;;;;;;1999.90;999.90;;;20.30;99.90;;;;;;6691623;89;20186;-79
2022/10/24 10:06:19;;;;;;;1999.90;999.90;;;20.60;99.90;;;;;;6664271;88;20245;-79
2022/10/24 10:16:27;;;;;;;1999.90;999.90;;;20.30;99.90;;;;;;6681549;89;20198;-80
2022/10/24 10:26:40;;;;;;;1999.90;999.90;;;20.00;99.90;;;;;;6678948;77;20265;-75
2022/10/24 10:37:10;;;;;;;1999.90;999.90;;;20.70;99.90;;;;;;6641347;89;20319;-75
2022/10/24 10:47:34;;;;;;;1999.90;999.90;;;20.40;99.90;;;;;;6635544;89;20632;-76
2022/10/24 10:57:52;;;;;;;1999.90;999.90;;;20.10;99.90;;;;;;6632361;89;20210;-75
2022/10/24 11:08:05;;;;;;;1999.90;999.90;;;20.30;99.90;;;;;;6635840;89;20213;-75
2022/10/24 11:18:26;;;;;;;1999.90;999.90;;;20.00;99.90;;;;;;6634064;89;20220;-74
2022/10/24 11:28:43;;;;;;;1999.90;999.90;;;19.80;99.90;;;;;;6630865;89;20226;-76
2022/10/24 11:39:07;;;;;;;1999.90;999.90;;;19.80;99.90;;;;;;6637055;89;20332;-76
2022/10/24 11:49:17;;;;;;;1999.90;999.90;;;19.80;99.90;;;;;;6634991;88;20255;-76
2022/10/24 11:59:23;;;;;;;1999.90;999.90;;;19.80;99.90;;;;;;6642200;89;20180;-77
2022/10/24 12:09:42;;;;;;;1999.90;999.90;;;20.30;99.90;;;;;;6639164;88;20199;-75
2022/10/24 12:19:44;;;;;;;1999.90;999.90;;;20.40;99.90;;;;;;6637006;89;20805;-76
2022/10/24 12:29:58;;;;;;;1999.90;999.90;;;20.40;99.90;;;;;;6657766;88;20278;-75
2022/10/24 12:40:22;;;;;;;1999.90;999.90;;;20.40;99.90;;;;;;6646430;88;20809;-76
2022/10/24 12:50:27;;;;;;;1999.90;999.90;;;19.90;99.90;;;;;;6636826;88;20209;-76
2022/10/24 13:00:50;;;;;;;1999.90;999.90;;;20.20;99.90;;;;;;6638351;89;20266;-76
2022/10/24 13:11:12;;;;;;;1999.90;999.90;;;19.90;99.90;;;;;;6634816;89;20359;-76
2022/10/24 13:21:23;;;;;;;1999.90;999.90;;;19.60;99.90;;;;;;6639979;88;20180;-75
2022/10/24 13:31:32;;;;;;;1999.90;999.90;;;19.30;99.90;;;;;;6637687;89;20222;-75
2022/10/24 13:41:42;;;;;;;1999.90;999.90;;;19.40;99.90;;;;;;6634949;89;20242;-76
2022/10/24 13:51:58;;;;;;;1999.90;999.90;;;19.30;99.90;;;;;;6637973;89;21053;-76
2022/10/24 14:02:05;;;;;;;1999.90;999.90;;;19.60;99.90;;;;;;6635702;89;20196;-77
2022/10/24 14:12:06;;;;;;;1999.90;999.90;;;19.40;99.90;;;;;;6637566;88;20558;-77
2022/10/24 14:22:18;;;;;;;1999.90;999.90;;;19.20;99.90;;;;;;6635822;88;20839;-77
2022/10/24 14:32:20;;;;;;;1999.90;999.90;;;19.10;99.90;;;;;;6638862;88;20260;-76
2022/10/24 14:42:28;;;;;;;1999.90;999.90;;;19.30;99.90;;;;;;6638803;88;20583;-77
2022/10/24 14:52:38;;;;;;;1999.90;999.90;;;19.20;99.90;;;;;;6639419;88;20181;-76
2022/10/24 15:02:45;;;;;;;1999.90;999.90;;;19.10;99.90;;;;;;6640037;89;20235;-77
2022/10/24 15:12:53;;;;;;;1999.90;999.90;;;18.80;99.90;;;;;;6629368;88;20230;-76
2022/10/24 15:22:58;;;;;;;1999.90;999.90;;;18.60;99.90;;;;;;6637667;89;20192;-76
2022/10/24 15:33:00;;;;;;;;;;;18.50;99.90;;;;;;6638322;89;20660;-76
2022/10/24 15:43:01;;;;;;;1999.90;999.90;;;18.60;99.90;;;;;;6640361;88;20045;-75
2022/10/24 15:53:08;;;;;;;1999.90;999.90;;;18.40;99.90;;;;;;6636747;88;20166;-75
2022/10/24 16:03:16;;;;;;;1999.90;999.90;;;18.20;99.90;;;;;;6641845;89;20200;-75
2022/10/24 16:13:20;;;;;;;1999.90;999.90;;;18.00;99.90;;;;;;6634479;88;20695;-76
2022/10/24 16:23:29;;;;;;;1999.90;999.90;;;17.90;99.90;;;;;;6630140;88;20193;-76
2022/10/24 16:33:50;;;;;;;1999.90;999.90;;;17.80;99.90;;;;;;6643931;77;20173;-78
2022/10/24 16:43:55;;;;;;;1999.90;999.90;;;17.60;99.90;;;;;;6620545;89;20213;-78
2022/10/24 16:53:59;;;;;;;1999.90;999.90;;;17.50;99.90;;;;;;6630227;88;20259;-78
2022/10/24 17:04:00;;;;;;;1999.90;999.90;;;17.40;99.90;;;;;;6603404;89;20195;-78
2022/10/24 17:14:01;;;;;;;1999.90;999.90;;;17.40;99.90;;;;;;6621212;89;20202;-78
2022/10/24 17:24:01;;;;;;;1999.90;999.90;;;17.40;99.90;;;;;;6626058;89;20201;-78
2022/10/24 17:34:02;;;;;;;1999.90;999.90;;;17.30;99.90;;;;;;6634282;89;20338;-78
2022/10/24 17:44:04;;;;;;;1999.90;999.90;;;17.10;99.90;;;;;;6637116;89;20210;-79
2022/10/24 17:54:04;;;;;;;1999.90;999.90;;;17.00;99.90;;;;;;6636233;89;20201;-78
2022/10/24 18:04:05;;;;;;;1999.90;999.90;;;17.00;99.90;;;;;;6633479;89;20217;-78
2022/10/24 18:14:06;;;;;;;1999.90;999.90;;;16.90;99.90;;;;;;6632613;89;20709;-78
2022/10/24 18:24:07;;;;;;;1999.90;999.90;;;16.60;99.90;;;;;;6631362;88;20208;-78
2022/10/24 18:34:07;;;;;;;1999.90;999.90;;;16.60;99.90;;;;;;6628859;89;20607;-77
2022/10/24 18:44:24;;;;;;;1999.90;999.90;;;16.40;99.90;;;;;;6628371;89;20737;-77
2022/10/24 18:54:24;;;;;;;1999.90;999.90;;;15.90;99.90;;;;;;6595124;89;20285;-78
2022/10/24 19:04:25;;;;;;;1999.90;999.90;;;15.70;99.90;;;;;;6596000;89;20221;-78
2022/10/24 19:14:26;;;;;;;1999.90;999.90;;;15.20;99.90;;;;;;6595980;90;20994;-77
2022/10/24 19:24:27;;;;;;;1999.90;999.90;;;15.00;99.90;;;;;;6601926;89;20212;-78
2022/10/24 19:34:29;;;;;;;1999.90;999.90;;;14.80;99.90;;;;;;6604304;89;20683;-78
2022/10/24 19:44:30;;;;;;;1999.90;999.90;;;14.80;99.90;;;;;;6596483;89;20190;-78
2022/10/24 19:54:30;;;;;;;1999.90;999.90;;;14.80;99.90;;;;;;6594623;89;20897;-78
2022/10/24 20:04:32;;;;;;;1999.90;999.90;;;14.80;99.90;;;;;;6596872;89;20212;-78
2022/10/24 20:14:32;;;;;;;1999.90;999.90;;;14.70;99.90;;;;;;6597841;89;20210;-78
2022/10/24 20:24:33;;;;;;;1999.90;999.90;;;14.60;99.90;;;;;;6597745;89;20222;-78
2022/10/24 20:34:34;;;;;;;1999.90;999.90;;;14.50;99.90;;;;;;6597132;89;20328;-77
2022/10/24 20:44:34;;;;;;;1999.90;999.90;;;14.40;99.90;;;;;;6597125;89;20732;-78
2022/10/24 20:54:35;;;;;;;1999.90;999.90;;;14.30;99.90;;;;;;6596927;89;20219;-78
2022/10/24 21:04:35;;;;;;;1999.90;999.90;;;14.50;99.90;;;;;;6597650;89;20602;-79
2022/10/24 21:14:36;;;;;;;1999.90;999.90;;;14.30;99.90;;;;;;6598659;89;20248;-79
2022/10/24 21:24:36;;;;;;;1999.90;999.90;;;14.10;99.90;;;;;;6599997;89;20265;-79
2022/10/24 21:34:37;;;;;;;1999.90;999.90;;;14.10;99.90;;;;;;6599384;89;20638;-79
2022/10/24 21:44:37;;;;;;;1999.90;999.90;;;14.10;99.90;;;;;;6597848;89;20227;-78
2022/10/24 21:54:38;;;;;;;1999.90;999.90;;;14.20;99.90;;;;;;6598337;89;20193;-78
2022/10/24 22:04:38;;;;;;;1999.90;999.90;;;14.20;99.90;;;;;;6598362;89;20198;-78
2022/10/24 22:14:39;;;;;;;1999.90;999.90;;;13.90;99.90;;;;;;6599140;89;20527;-78
2022/10/24 22:24:39;;;;;;;1999.90;999.90;;;13.70;99.90;;;;;;6599685;89;20320;-78
2022/10/24 22:44:44;;;;;;;1999.90;999.90;;;13.40;99.90;;;;;;6651971;88;20211;-78
2022/10/24 22:54:45;;;;;;;1999.90;999.90;;;13.50;99.90;;;;;;6654104;88;20209;-78
2022/10/24 23:04:58;;;;;;;1999.90;999.90;;;13.60;99.90;;;;;;6652235;88;20173;-77
2022/10/24 23:14:59;;;;;;;1999.90;999.90;;;13.80;99.90;;;;;;6649419;89;20221;-78
2022/10/24 23:25:00;;;;;;;1999.90;999.90;;;13.80;99.90;;;;;;6657259;88;20198;-78
2022/10/24 23:35:01;;;;;;;1999.90;999.90;;;13.80;99.90;;;;;;6650369;88;20664;-78
2022/10/24 23:45:02;;;;;;;1999.90;999.90;;;13.70;99.90;;;;;;6658677;89;20201;-78
2022/10/24 23:55:03;;;;;;;1999.90;999.90;;;13.90;99.90;;;;;;6657999;89;20740;-78
